Time;durP1;ratioP1;P1;durP2;ratioP2;P2;SDS_P1;SDS_P2;PMS_P1;PMS_P2;Temp;Humidity;BMP_temperature;BMP_pressure;BME280_temperature;BME280_humidity;BME280_pressure;Samples;Min_cycle;Max_cycle;Signal;HPM_P1;HPM_P2
2022/05/10 00:01:40;;;;;;;10.35;5.53;;;9.50;66.30;;;;;;4996269;28;20026;-79
2022/05/10 00:04:08;;;;;;;9.50;5.22;;;9.50;66.40;;;;;;4996038;28;20406;-76
2022/05/10 00:06:41;;;;;;;11.07;4.65;;;9.50;66.30;;;;;;5013808;28;20022;-79
2022/05/10 00:09:07;;;;;;;8.20;4.45;;;9.50;66.30;;;;;;4996070;28;20018;-76
2022/05/10 00:11:33;;;;;;;11.60;6.05;;;9.50;66.00;;;;;;5013696;28;20026;-77
2022/05/10 00:13:59;;;;;;;11.15;4.65;;;9.50;65.80;;;;;;4995975;28;20356;-79
2022/05/10 00:16:25;;;;;;;9.30;5.45;;;9.40;65.80;;;;;;4995297;28;20045;-76
2022/05/10 00:18:50;;;;;;;12.18;6.13;;;9.40;66.10;;;;;;5012608;28;20038;-76
2022/05/10 00:21:25;;;;;;;11.82;7.10;;;9.30;66.30;;;;;;5012718;28;20049;-78
2022/05/10 00:23:52;;;;;;;10.35;6.03;;;9.20;66.40;;;;;;4995057;28;20061;-80
2022/05/10 00:26:17;;;;;;;8.93;6.43;;;9.20;66.40;;;;;;4995020;28;20029;-76
2022/05/10 00:28:43;;;;;;;10.60;6.47;;;9.20;66.30;;;;;;4994966;28;20388;-76
2022/05/10 00:31:10;;;;;;;9.38;6.28;;;9.20;66.20;;;;;;5012513;28;20064;-77
2022/05/10 00:33:37;;;;;;;12.85;6.43;;;9.20;66.00;;;;;;5012304;28;20423;-76
2022/05/10 00:36:04;;;;;;;8.80;6.07;;;9.20;65.80;;;;;;5012680;28;20391;-77
2022/05/10 00:38:35;;;;;;;10.63;5.40;;;9.10;66.00;;;;;;4994866;28;20092;-79
2022/05/10 00:41:07;;;;;;;12.30;6.10;;;9.10;66.00;;;;;;5012497;28;20387;-80
2022/05/10 00:43:40;;;;;;;12.07;6.45;;;9.10;65.90;;;;;;4994845;28;20113;-79
2022/05/10 00:46:15;;;;;;;9.52;6.22;;;9.10;65.70;;;;;;5012491;28;20026;-79
2022/05/10 00:49:03;;;;;;;8.13;4.93;;;9.10;65.60;;;;;;4994688;28;20412;-76
2022/05/10 00:51:44;;;;;;;11.18;4.70;;;9.10;65.80;;;;;;5012331;28;20030;-76
2022/05/10 00:54:45;;;;;;;5.43;4.03;;;9.00;65.70;;;;;;4994521;28;20038;-76
2022/05/10 00:57:45;;;;;;;5.82;3.40;;;9.00;65.30;;;;;;4974436;28;20030;-76
2022/05/10 01:00:21;;;;;;;6.32;3.55;;;9.00;65.30;;;;;;5007002;28;20034;-76
2022/05/10 01:03:06;;;;;;;5.47;3.25;;;9.00;65.20;;;;;;4994465;28;20493;-76
2022/05/10 01:05:46;;;;;;;9.18;3.72;;;8.90;65.30;;;;;;5012197;28;20030;-76
2022/05/10 01:08:24;;;;;;;4.60;3.15;;;8.80;65.30;;;;;;5012207;28;20029;-76
2022/05/10 01:11:06;;;;;;;4.35;3.85;;;8.80;65.30;;;;;;4994271;28;20033;-79
2022/05/10 01:13:54;;;;;;;7.50;3.08;;;8.70;65.30;;;;;;4994483;28;20133;-76
2022/05/10 01:16:22;;;;;;;4.97;3.28;;;8.70;65.40;;;;;;4955278;28;1059846;-76
2022/05/10 01:18:50;;;;;;;6.80;3.65;;;8.70;65.40;;;;;;4995110;28;20395;-79
2022/05/10 01:21:37;;;;;;;4.95;3.45;;;8.60;65.30;;;;;;4995174;28;20462;-76
2022/05/10 01:24:27;;;;;;;6.28;3.53;;;8.50;65.50;;;;;;5014492;28;20049;-76
2022/05/10 01:27:23;;;;;;;7.80;3.25;;;8.50;65.50;;;;;;4999060;28;20088;-79
2022/05/10 01:30:08;;;;;;;7.00;3.38;;;8.50;65.60;;;;;;4998949;28;20061;-79
2022/05/10 01:35:33;;;;;;;5.38;3.50;;;8.40;65.70;;;;;;5016381;28;20590;-76
2022/05/10 01:38:05;;;;;;;7.50;3.53;;;8.40;65.90;;;;;;5016393;28;20026;-79
2022/05/10 01:40:35;;;;;;;4.03;3.53;;;8.30;66.30;;;;;;5016443;28;20022;-76
2022/05/10 01:43:19;;;;;;;5.45;3.53;;;8.30;66.60;;;;;;4998246;28;20529;-76
2022/05/10 01:45:52;;;;;;;7.57;4.32;;;8.20;66.70;;;;;;4998674;28;20124;-79
2022/05/10 01:48:21;;;;;;;5.70;4.10;;;8.20;67.00;;;;;;4998749;28;20033;-76
2022/05/10 01:50:58;;;;;;;7.85;4.75;;;8.20;67.00;;;;;;5016053;28;20105;-76
2022/05/10 01:53:34;;;;;;;7.28;4.57;;;8.20;67.10;;;;;;4998441;28;20026;-76
2022/05/10 01:56:02;;;;;;;8.27;5.90;;;8.10;67.20;;;;;;4998570;28;20045;-76
2022/05/10 01:58:30;;;;;;;8.75;5.80;;;8.10;67.50;;;;;;4998400;28;20022;-79
2022/05/10 02:01:03;;;;;;;9.45;6.38;;;8.00;67.60;;;;;;4998242;28;20034;-80
2022/05/10 02:03:39;;;;;;;9.48;6.47;;;8.10;67.30;;;;;;5016098;28;20022;-76
2022/05/10 02:06:29;;;;;;;12.35;5.93;;;8.00;67.40;;;;;;4998420;28;20502;-79
2022/05/10 02:08:58;;;;;;;7.18;6.20;;;8.00;66.70;;;;;;4998242;28;20079;-76
2022/05/10 02:11:23;;;;;;;10.65;5.45;;;8.10;66.50;;;;;;5015777;28;20391;-76
2022/05/10 02:14:04;;;;;;;14.10;6.38;;;8.00;66.80;;;;;;4998068;28;20022;-79
2022/05/10 02:16:33;;;;;;;8.63;5.28;;;8.00;66.90;;;;;;4997875;28;20046;-79
2022/05/10 02:19:09;;;;;;;8.57;4.93;;;7.90;67.10;;;;;;4998197;28;20112;-76
2022/05/10 02:21:44;;;;;;;8.82;4.85;;;7.90;67.40;;;;;;4998064;28;20491;-76
2022/05/10 02:24:16;;;;;;;8.68;4.63;;;7.80;67.30;;;;;;4998070;28;20022;-78
2022/05/10 02:26:49;;;;;;;11.80;4.95;;;7.80;67.60;;;;;;5015572;28;20160;-76
2022/05/10 02:29:24;;;;;;;;;;;7.80;67.50;;;;;;5016013;28;20400;-76
2022/05/10 02:34:45;;;;;;;6.70;4.72;;;7.80;66.40;;;;;;5014369;28;20213;-79
2022/05/10 02:37:12;;;;;;;11.75;5.80;;;7.90;66.00;;;;;;5015177;28;20029;-79
2022/05/10 02:39:38;;;;;;;9.43;5.05;;;7.90;65.60;;;;;;4997801;28;20022;-76
2022/05/10 02:42:04;;;;;;;14.48;5.93;;;8.00;65.40;;;;;;4997629;28;20391;-77
2022/05/10 02:44:30;;;;;;;14.95;7.57;;;8.00;65.20;;;;;;4997755;28;20025;-79
2022/05/10 02:46:57;;;;;;;11.82;6.70;;;8.00;65.00;;;;;;5014950;28;20026;-79
2022/05/10 02:49:23;;;;;;;11.55;5.93;;;8.00;64.70;;;;;;5015193;28;20486;-80
2022/05/10 02:51:48;;;;;;;8.80;5.28;;;8.00;64.60;;;;;;4997525;28;20022;-79
2022/05/10 02:54:14;;;;;;;10.80;5.50;;;8.00;64.60;;;;;;5014981;28;20092;-76
2022/05/10 02:56:41;;;;;;;8.85;4.35;;;7.90;64.70;;;;;;4997396;28;20018;-76
2022/05/10 02:59:21;;;;;;;7.70;3.75;;;7.80;64.90;;;;;;4997331;28;20431;-76
2022/05/10 03:01:46;;;;;;;6.80;3.83;;;7.80;65.00;;;;;;4997264;28;20486;-79
2022/05/10 03:04:13;;;;;;;4.78;3.53;;;7.80;64.90;;;;;;4997320;28;20038;-76
2022/05/10 03:06:42;;;;;;;5.65;3.47;;;7.80;64.80;;;;;;4996992;28;20042;-77
2022/05/10 03:09:08;;;;;;;7.90;3.28;;;7.70;65.00;;;;;;4997261;28;20383;-76
2022/05/10 03:11:35;;;;;;;7.13;2.92;;;7.70;64.90;;;;;;4997147;28;20060;-77
2022/05/10 03:14:01;;;;;;;3.90;2.92;;;7.70;64.90;;;;;;5014788;28;20543;-76
2022/05/10 03:16:27;;;;;;;4.45;2.92;;;7.70;65.10;;;;;;4996975;28;20042;-79
2022/05/10 03:18:54;;;;;;;3.55;2.78;;;7.60;65.30;;;;;;4996999;28;20541;-78
2022/05/10 03:21:20;;;;;;;6.72;3.33;;;7.60;65.40;;;;;;4996799;28;20068;-76
2022/05/10 03:23:46;;;;;;;4.03;3.08;;;7.60;66.20;;;;;;5014604;28;20097;-76
2022/05/10 03:26:15;;;;;;;5.30;3.80;;;7.70;65.40;;;;;;5014412;28;20460;-76
2022/05/10 03:28:41;;;;;;;7.28;4.10;;;7.60;65.10;;;;;;4996848;28;20022;-79
2022/05/10 03:31:08;;;;;;;9.40;3.95;;;7.60;65.40;;;;;;4996691;28;20017;-76
2022/05/10 03:33:34;;;;;;;5.95;3.25;;;7.60;65.70;;;;;;5014438;28;20056;-76
2022/05/10 03:35:59;;;;;;;7.07;3.40;;;7.60;66.00;;;;;;4996673;28;20061;-76
2022/05/10 03:38:25;;;;;;;6.07;4.05;;;7.60;65.90;;;;;;4996592;28;20479;-76
2022/05/10 03:40:50;;;;;;;7.47;4.80;;;7.60;66.00;;;;;;5014109;28;20388;-78
2022/05/10 03:43:16;;;;;;;8.95;5.05;;;7.60;65.90;;;;;;4996510;28;20022;-76
2022/05/10 03:45:42;;;;;;;8.48;4.88;;;7.70;65.90;;;;;;4996442;28;20498;-79
2022/05/10 03:48:08;;;;;;;8.35;4.22;;;7.80;65.70;;;;;;5013565;28;20037;-80
2022/05/10 03:50:33;;;;;;;6.15;4.35;;;8.00;65.20;;;;;;4996447;28;20019;-76
2022/05/10 03:52:59;;;;;;;8.63;4.82;;;8.10;64.70;;;;;;4996224;28;20020;-76
2022/05/10 03:55:27;;;;;;;8.90;4.32;;;8.20;64.20;;;;;;4996266;28;20414;-76
2022/05/10 03:57:53;;;;;;;7.03;4.55;;;8.30;63.90;;;;;;4996169;28;20487;-79
2022/05/10 04:00:23;;;;;;;5.60;4.00;;;8.50;63.60;;;;;;5013782;28;20018;-76
2022/05/10 04:02:49;;;;;;;7.25;4.20;;;8.60;62.80;;;;;;4995903;28;20022;-76
2022/05/10 04:05:16;;;;;;;7.35;5.20;;;8.80;62.50;;;;;;5013984;28;20032;-79
2022/05/10 04:07:42;;;;;;;5.85;4.20;;;8.90;62.60;;;;;;4996099;28;20388;-76
2022/05/10 04:10:09;;;;;;;6.18;3.80;;;9.00;62.60;;;;;;4996157;28;20026;-79
2022/05/10 04:12:36;;;;;;;10.48;4.40;;;9.10;62.40;;;;;;4995790;28;20040;-79
2022/05/10 04:15:03;;;;;;;7.95;4.75;;;9.20;62.10;;;;;;5018028;28;20053;-80
2022/05/10 04:17:29;;;;;;;5.93;3.72;;;9.20;62.40;;;;;;5033168;28;20372;-78
2022/05/10 04:19:55;;;;;;;7.40;3.97;;;9.20;62.20;;;;;;5033422;28;20036;-79
2022/05/10 04:22:20;;;;;;;5.50;3.72;;;9.30;62.50;;;;;;5015480;28;20028;-79
2022/05/10 04:24:47;;;;;;;9.02;4.00;;;9.20;62.30;;;;;;5033196;28;20024;-79
2022/05/10 04:27:12;;;;;;;5.15;4.05;;;9.20;62.60;;;;;;5032860;28;20049;-77
2022/05/10 04:29:38;;;;;;;10.23;3.58;;;9.20;62.60;;;;;;5015535;28;20070;-76
2022/05/10 04:32:04;;;;;;;6.65;3.67;;;9.30;62.80;;;;;;5032969;28;20037;-77
2022/05/10 04:34:30;;;;;;;8.07;3.72;;;9.30;62.40;;;;;;5033173;28;20041;-79
2022/05/10 04:36:55;;;;;;;4.47;3.40;;;9.40;62.60;;;;;;5032926;28;20584;-80
2022/05/10 04:39:21;;;;;;;7.32;3.78;;;9.50;62.60;;;;;;5033024;28;20030;-77
2022/05/10 04:41:49;;;;;;;6.03;3.35;;;9.50;63.00;;;;;;5015388;28;20021;-79
2022/05/10 04:44:15;;;;;;;6.38;3.85;;;9.60;63.10;;;;;;5015141;28;20052;-76
2022/05/10 04:46:41;;;;;;;3.88;3.10;;;9.70;62.50;;;;;;5032930;28;20052;-79
2022/05/10 04:49:09;;;;;;;11.82;4.10;;;9.70;62.20;;;;;;5015102;28;20033;-77
2022/05/10 04:51:36;;;;;;;3.47;3.08;;;9.80;62.20;;;;;;5015210;28;20487;-77
2022/05/10 04:54:02;;;;;;;5.38;3.05;;;9.90;61.90;;;;;;5014878;28;20033;-80
2022/05/10 04:56:27;;;;;;;3.88;3.17;;;9.90;61.80;;;;;;5032314;28;20033;-79
2022/05/10 04:58:54;;;;;;;5.53;3.10;;;10.00;61.80;;;;;;5016501;28;20029;-77
2022/05/10 05:01:25;;;;;;;5.28;3.10;;;10.10;61.60;;;;;;5036874;28;20430;-81
2022/05/10 05:03:51;;;;;;;4.70;3.03;;;10.10;61.40;;;;;;5036837;28;20025;-76
2022/05/10 05:06:17;;;;;;;4.95;3.22;;;10.20;61.80;;;;;;5037029;28;20075;-77
2022/05/10 05:08:43;;;;;;;5.53;2.78;;;10.30;61.80;;;;;;5036791;28;20100;-77
2022/05/10 05:11:09;;;;;;;4.72;2.95;;;10.40;61.50;;;;;;5036894;28;20431;-77
2022/05/10 05:13:35;;;;;;;4.18;2.53;;;10.50;61.10;;;;;;5026709;28;20021;-76
2022/05/10 05:16:01;;;;;;;4.30;2.92;;;10.60;61.30;;;;;;5028856;28;20509;-76
2022/05/10 05:18:27;;;;;;;4.75;2.53;;;10.60;61.50;;;;;;5032387;28;20394;-76
2022/05/10 05:20:53;;;;;;;3.80;2.80;;;10.80;60.80;;;;;;5035430;28;20033;-76
2022/05/10 05:23:21;;;;;;;6.53;2.90;;;10.90;61.10;;;;;;5049868;28;20017;-74
2022/05/10 05:25:48;;;;;;;4.00;2.75;;;11.10;60.20;;;;;;5035562;28;20025;-75
2022/05/10 05:28:15;;;;;;;4.18;2.85;;;11.10;60.30;;;;;;5034179;28;20029;-75
2022/05/10 05:30:42;;;;;;;6.65;2.92;;;11.20;60.50;;;;;;5030088;28;20031;-75
2022/05/10 05:33:08;;;;;;;11.80;3.20;;;11.30;60.40;;;;;;5034541;28;20034;-73
2022/05/10 05:35:34;;;;;;;5.25;3.00;;;11.40;60.10;;;;;;5034026;28;20083;-73
2022/05/10 05:38:00;;;;;;;6.25;3.13;;;11.50;59.90;;;;;;5034512;28;20044;-74
2022/05/10 05:40:27;;;;;;;5.95;2.67;;;11.60;59.80;;;;;;5033918;28;20418;-74
2022/05/10 05:42:54;;;;;;;5.40;2.60;;;11.80;59.50;;;;;;5032073;28;20121;-74
2022/05/10 05:45:22;;;;;;;4.72;2.65;;;11.90;59.50;;;;;;5036024;28;20467;-74
2022/05/10 05:47:48;;;;;;;6.68;2.53;;;12.00;59.20;;;;;;5015924;28;20120;-74
2022/05/10 05:50:15;;;;;;;7.32;3.53;;;12.10;59.10;;;;;;5017007;28;20025;-75
2022/05/10 05:52:42;;;;;;;8.05;3.50;;;12.10;59.10;;;;;;5035109;28;20104;-75
2022/05/10 05:55:09;;;;;;;8.57;3.25;;;12.30;59.10;;;;;;5035637;28;20045;-78
2022/05/10 05:57:35;;;;;;;3.50;2.88;;;12.40;58.60;;;;;;5035775;28;20018;-74
2022/05/10 06:00:02;;;;;;;3.80;3.22;;;12.50;58.70;;;;;;5017862;28;20078;-75
2022/05/10 06:02:28;;;;;;;5.80;2.97;;;12.60;58.50;;;;;;5035671;28;20498;-78
2022/05/10 06:04:54;;;;;;;2.88;2.60;;;12.70;59.10;;;;;;5017969;28;20113;-77
2022/05/10 06:07:20;;;;;;;2.90;2.35;;;12.90;57.90;;;;;;5035767;28;20148;-78
2022/05/10 06:09:47;;;;;;;3.05;2.30;;;13.00;57.50;;;;;;5017301;28;20113;-75
2022/05/10 06:12:15;;;;;;;4.43;2.45;;;13.20;57.00;;;;;;5017219;28;20380;-75
2022/05/10 06:14:42;;;;;;;4.82;2.30;;;13.40;56.30;;;;;;5017619;28;20037;-75
2022/05/10 06:17:08;;;;;;;5.47;3.00;;;13.50;56.30;;;;;;5035550;28;20079;-74
2022/05/10 06:19:37;;;;;;;3.47;2.35;;;13.60;55.80;;;;;;5017652;28;20033;-76
2022/05/10 06:22:04;;;;;;;4.03;3.00;;;13.80;55.50;;;;;;5017701;28;20033;-76
2022/05/10 06:24:30;;;;;;;3.22;2.42;;;14.00;55.80;;;;;;5035317;28;20521;-77
2022/05/10 06:26:55;;;;;;;4.90;3.10;;;14.10;55.90;;;;;;5017541;28;20029;-76
2022/05/10 06:29:21;;;;;;;5.80;2.85;;;14.30;57.50;;;;;;5017475;28;20083;-76
2022/05/10 06:31:47;;;;;;;3.33;3.03;;;14.50;56.60;;;;;;5035501;28;20029;-77
2022/05/10 06:34:14;;;;;;;4.70;3.13;;;14.70;55.70;;;;;;5017256;28;20021;-78
2022/05/10 06:36:41;;;;;;;6.13;3.28;;;14.80;55.00;;;;;;5016754;28;20051;-75
2022/05/10 06:39:08;;;;;;;5.00;3.83;;;14.90;55.00;;;;;;5017349;28;20053;-75
2022/05/10 06:41:34;;;;;;;6.78;3.42;;;15.00;55.80;;;;;;5035316;28;20017;-78
2022/05/10 06:44:00;;;;;;;6.10;3.88;;;15.00;54.40;;;;;;5035157;28;20033;-77
2022/05/10 06:46:27;;;;;;;5.63;3.33;;;15.20;54.40;;;;;;5032810;28;20103;-77
2022/05/10 06:48:53;;;;;;;8.05;3.30;;;15.30;54.70;;;;;;5034043;28;20014;-77
2022/05/10 06:51:21;;;;;;;5.10;4.53;;;15.40;54.50;;;;;;5015416;28;20026;-78
2022/05/10 06:53:47;;;;;;;5.55;3.92;;;15.50;54.50;;;;;;5023622;28;20391;-78
2022/05/10 06:56:13;;;;;;;5.38;3.88;;;15.60;55.20;;;;;;5032797;28;20030;-78
2022/05/10 06:58:39;;;;;;;5.50;3.10;;;15.70;54.00;;;;;;5032973;28;20639;-78
2022/05/10 07:01:11;;;;;;;6.88;2.75;;;15.70;53.60;;;;;;5031793;28;20029;-77
2022/05/10 07:03:37;;;;;;;14.70;3.13;;;15.90;53.00;;;;;;5032243;28;20030;-78
2022/05/10 07:06:06;;;;;;;3.67;2.92;;;16.00;52.80;;;;;;5033203;28;20025;-77
2022/05/10 07:08:32;;;;;;;3.83;2.80;;;16.20;53.10;;;;;;5033625;28;20421;-76
2022/05/10 07:10:58;;;;;;;5.75;3.88;;;16.30;51.40;;;;;;5033330;28;20041;-78
2022/05/10 07:13:30;;;;;;;8.30;3.88;;;16.40;51.10;;;;;;5033561;28;20123;-76
2022/05/10 07:15:56;;;;;;;5.87;3.93;;;16.40;51.40;;;;;;5033125;28;20085;-78
2022/05/10 07:18:22;;;;;;;6.05;2.95;;;16.50;51.80;;;;;;5034604;28;20079;-77
2022/05/10 07:20:49;;;;;;;4.47;3.00;;;16.50;50.90;;;;;;5016163;28;20576;-77
2022/05/10 07:23:18;;;;;;;7.55;3.17;;;16.70;50.60;;;;;;5016635;28;20017;-76
2022/05/10 07:25:44;;;;;;;2.85;2.35;;;16.90;50.10;;;;;;5016995;28;20044;-78
2022/05/10 07:28:10;;;;;;;4.72;2.42;;;17.10;50.10;;;;;;5034330;28;20464;-78
2022/05/10 07:30:36;;;;;;;3.33;2.28;;;17.10;48.00;;;;;;5016526;28;20047;-78
2022/05/10 07:33:04;;;;;;;5.88;3.20;;;17.10;47.80;;;;;;5034291;28;20053;-78
2022/05/10 07:38:16;;;;;;;3.55;2.70;;;17.10;47.60;;;;;;5019430;28;20065;-77
2022/05/10 07:40:44;;;;;;;5.85;2.40;;;17.10;48.50;;;;;;5034098;28;20434;-78
2022/05/10 07:43:12;;;;;;;4.55;2.63;;;17.20;48.80;;;;;;5016401;28;20034;-78
2022/05/10 07:45:39;;;;;;;6.68;3.35;;;17.30;49.50;;;;;;5016363;28;20390;-77
2022/05/10 07:48:06;;;;;;;4.80;3.30;;;17.40;48.60;;;;;;5016364;28;20120;-77
2022/05/10 07:50:32;;;;;;;2.58;2.33;;;17.40;48.60;;;;;;5033871;28;20105;-78
2022/05/10 07:53:00;;;;;;;5.63;2.80;;;17.40;48.40;;;;;;5033845;28;20053;-77
2022/05/10 07:55:26;;;;;;;5.20;2.80;;;17.40;49.00;;;;;;5033811;28;20041;-77
2022/05/10 07:57:52;;;;;;;7.63;3.35;;;17.60;49.90;;;;;;5032758;28;20356;-78
2022/05/10 08:00:18;;;;;;;6.72;3.20;;;17.80;48.80;;;;;;5020015;28;20029;-78
2022/05/10 08:02:44;;;;;;;6.82;3.08;;;17.90;48.60;;;;;;5015699;28;20026;-77
2022/05/10 08:05:18;;;;;;;5.60;3.20;;;17.90;47.80;;;;;;5015696;28;20112;-78
2022/05/10 08:07:46;;;;;;;4.72;3.05;;;17.90;48.60;;;;;;5015671;28;20017;-78
2022/05/10 08:10:12;;;;;;;4.05;2.60;;;18.10;48.80;;;;;;5033256;28;20026;-78
2022/05/10 08:12:38;;;;;;;4.85;2.67;;;18.20;48.00;;;;;;5015578;28;20045;-79
2022/05/10 08:15:04;;;;;;;4.40;2.88;;;18.40;48.10;;;;;;5015336;28;20119;-78
2022/05/10 08:17:31;;;;;;;4.10;2.55;;;18.30;47.40;;;;;;5033025;28;20057;-78
2022/05/10 08:19:57;;;;;;;3.63;2.42;;;18.40;47.80;;;;;;5015493;28;20029;-78
2022/05/10 08:22:22;;;;;;;2.80;2.47;;;18.50;47.90;;;;;;5033063;28;20025;-77
2022/05/10 08:24:48;;;;;;;6.05;2.40;;;18.60;47.00;;;;;;5033168;28;20079;-78
2022/05/10 08:27:14;;;;;;;3.80;2.38;;;18.60;47.90;;;;;;5033061;28;20030;-78
2022/05/10 08:29:41;;;;;;;3.28;2.30;;;18.90;47.40;;;;;;5033087;28;20024;-78
2022/05/10 08:32:07;;;;;;;4.55;2.42;;;18.90;46.30;;;;;;5032936;28;20025;-77
2022/05/10 08:34:34;;;;;;;4.18;3.08;;;18.90;45.70;;;;;;5032921;28;20048;-78
2022/05/10 08:37:02;;;;;;;5.20;2.40;;;18.70;44.50;;;;;;4999079;28;20431;-77
2022/05/10 08:39:27;;;;;;;3.50;2.17;;;18.80;43.90;;;;;;5015187;28;20033;-78
2022/05/10 08:42:04;;;;;;;6.05;2.70;;;18.90;44.70;;;;;;5015207;28;20025;-78
2022/05/10 08:44:35;;;;;;;3.90;2.70;;;19.00;44.00;;;;;;5032801;28;20060;-77
2022/05/10 08:47:06;;;;;;;2.65;2.33;;;18.80;44.80;;;;;;5015135;28;20055;-78
2022/05/10 08:49:36;;;;;;;2.42;1.95;;;18.70;44.80;;;;;;5032144;28;20025;-78
2022/05/10 08:52:05;;;;;;;4.70;2.03;;;18.60;45.10;;;;;;5014539;28;20025;-77
2022/05/10 08:54:31;;;;;;;5.38;2.20;;;18.50;45.10;;;;;;5029562;28;20498;-77
2022/05/10 08:57:03;;;;;;;4.55;2.47;;;18.90;46.50;;;;;;5029804;28;20029;-77
2022/05/10 08:59:53;;;;;;;5.07;2.28;;;19.00;45.20;;;;;;5012396;28;20030;-77
2022/05/10 09:02:47;;;;;;;5.25;2.35;;;19.10;44.50;;;;;;5030078;28;20151;-77
2022/05/10 09:05:25;;;;;;;2.72;2.30;;;18.80;43.30;;;;;;5030386;28;20024;-77
2022/05/10 09:08:18;;;;;;;4.68;2.42;;;18.70;43.80;;;;;;5030522;28;20025;-77
2022/05/10 09:10:45;;;;;;;9.60;4.82;;;18.80;45.20;;;;;;5014105;28;20029;-77
2022/05/10 09:13:15;;;;;;;4.68;3.15;;;18.80;43.90;;;;;;5012202;28;20043;-77
2022/05/10 09:15:46;;;;;;;3.67;2.40;;;18.90;44.00;;;;;;5012513;28;20612;-77
2022/05/10 09:18:21;;;;;;;5.88;2.50;;;19.10;44.50;;;;;;5030728;28;20033;-77
2022/05/10 09:21:06;;;;;;;3.75;2.67;;;19.20;44.30;;;;;;5013030;28;20033;-77
2022/05/10 09:23:49;;;;;;;4.90;2.28;;;19.50;46.30;;;;;;5013141;28;20064;-78
2022/05/10 09:26:17;;;;;;;3.85;2.22;;;19.50;45.50;;;;;;5012945;28;20036;-77
2022/05/10 09:29:05;;;;;;;3.28;2.33;;;19.20;44.70;;;;;;5014435;28;20028;-77
2022/05/10 09:37:18;;;;;;;5.47;2.50;;;19.40;44.20;;;;;;5032691;28;20235;-77
2022/05/10 09:40:00;;;;;;;4.40;2.20;;;19.60;43.40;;;;;;5014791;28;20029;-78
2022/05/10 09:42:30;;;;;;;5.45;3.05;;;19.30;42.30;;;;;;5014663;28;20090;-77
2022/05/10 09:45:02;;;;;;;6.35;3.95;;;19.10;42.50;;;;;;5016274;28;20025;-77
2022/05/10 09:47:29;;;;;;;5.30;4.00;;;18.90;43.20;;;;;;5018712;28;20044;-77
2022/05/10 09:50:17;;;;;;;7.75;4.38;;;19.20;43.50;;;;;;5036238;28;20026;-77
2022/05/10 09:52:46;;;;;;;6.28;3.55;;;19.30;44.40;;;;;;5035828;28;20010;-77
2022/05/10 09:55:27;;;;;;;4.72;3.10;;;19.00;43.90;;;;;;5036078;28;20061;-78
2022/05/10 09:57:54;;;;;;;6.15;2.70;;;18.90;44.30;;;;;;5036244;28;20049;-77
2022/05/10 10:00:41;;;;;;;5.03;2.33;;;19.10;45.50;;;;;;5018162;28;20031;-78
2022/05/10 10:03:07;;;;;;;7.55;3.90;;;19.30;44.60;;;;;;5035724;28;20030;-77
2022/05/10 10:05:35;;;;;;;5.50;3.13;;;19.70;44.60;;;;;;5018162;28;20021;-77
2022/05/10 10:08:01;;;;;;;5.55;2.80;;;19.80;43.80;;;;;;5018123;28;20365;-78
2022/05/10 10:10:30;;;;;;;5.60;2.53;;;19.70;43.90;;;;;;5018014;28;20093;-77
2022/05/10 10:12:56;;;;;;;5.72;2.40;;;19.70;44.00;;;;;;5035737;28;20041;-77
2022/05/10 10:15:38;;;;;;;4.65;2.00;;;19.70;42.60;;;;;;5035156;28;20143;-77
2022/05/10 10:18:10;;;;;;;2.50;2.13;;;19.80;42.10;;;;;;5015968;28;20357;-77
2022/05/10 10:20:53;;;;;;;4.03;2.20;;;19.60;42.50;;;;;;5016005;28;20101;-77
2022/05/10 10:23:38;;;;;;;4.90;2.25;;;19.80;44.20;;;;;;5015929;28;20026;-77
2022/05/10 10:26:31;;;;;;;5.28;2.65;;;20.00;42.80;;;;;;5015868;28;20104;-77
2022/05/10 10:29:04;;;;;;;3.03;2.72;;;20.20;42.10;;;;;;4997950;28;20038;-78
2022/05/10 10:31:35;;;;;;;3.15;2.17;;;20.60;42.10;;;;;;5015424;28;20093;-78
2022/05/10 10:34:24;;;;;;;4.73;2.10;;;20.50;41.70;;;;;;5015776;28;20018;-77
2022/05/10 10:37:00;;;;;;;4.68;2.58;;;20.30;42.50;;;;;;5008174;28;20328;-77
2022/05/10 10:39:57;;;;;;;5.45;2.50;;;20.40;43.40;;;;;;4997693;28;20030;-77
2022/05/10 10:42:36;;;;;;;16.52;3.28;;;20.50;43.00;;;;;;5015014;28;20045;-77
2022/05/10 10:45:07;;;;;;;6.47;2.90;;;20.20;42.70;;;;;;5015395;28;20018;-77
2022/05/10 10:47:42;;;;;;;3.13;2.30;;;19.80;43.80;;;;;;5015533;28;20072;-77
2022/05/10 10:50:23;;;;;;;3.55;2.15;;;19.40;43.10;;;;;;4997753;28;20018;-77
2022/05/10 10:52:49;;;;;;;5.10;2.40;;;19.30;43.10;;;;;;5021006;28;20017;-77
2022/05/10 10:55:18;;;;;;;4.05;2.42;;;19.40;44.60;;;;;;5034829;28;20383;-77
2022/05/10 10:57:46;;;;;;;7.57;2.55;;;19.60;44.60;;;;;;5034243;28;20026;-77
2022/05/10 11:00:18;;;;;;;3.63;2.50;;;19.80;44.50;;;;;;5033622;28;20025;-77
2022/05/10 11:03:14;;;;;;;4.47;2.63;;;19.80;44.00;;;;;;5034662;28;20034;-77
2022/05/10 11:05:46;;;;;;;4.28;2.47;;;19.70;43.20;;;;;;5033816;28;20079;-77
2022/05/10 11:08:34;;;;;;;2.70;2.33;;;19.40;43.20;;;;;;5034854;28;20026;-77
2022/05/10 11:11:24;;;;;;;3.88;2.22;;;19.60;43.70;;;;;;5034707;28;20024;-78
2022/05/10 11:14:20;;;;;;;3.63;2.50;;;19.60;44.20;;;;;;5033223;28;20032;-77
2022/05/10 11:17:10;;;;;;;6.35;2.55;;;19.70;44.50;;;;;;5042766;28;20053;-77
2022/05/10 11:19:45;;;;;;;3.13;2.22;;;19.80;44.40;;;;;;5034466;28;20080;-77
2022/05/10 11:22:22;;;;;;;2.75;2.55;;;19.80;43.80;;;;;;5034554;28;20018;-77
2022/05/10 11:25:12;;;;;;;5.97;2.55;;;19.80;43.40;;;;;;5034185;28;20601;-78
2022/05/10 11:27:53;;;;;;;3.88;2.42;;;19.80;43.50;;;;;;5033055;28;20478;-77
2022/05/10 11:30:30;;;;;;;2.97;2.22;;;20.00;43.80;;;;;;5034381;28;20033;-77
2022/05/10 11:33:24;;;;;;;4.32;2.47;;;19.90;43.00;;;;;;5016225;28;20026;-77
2022/05/10 11:35:57;;;;;;;3.65;2.60;;;20.00;43.30;;;;;;5008561;28;20056;-77
2022/05/10 11:38:51;;;;;;;4.88;2.53;;;19.80;43.20;;;;;;5016304;28;20022;-77
2022/05/10 11:41:25;;;;;;;5.35;2.90;;;19.90;43.80;;;;;;5016426;28;20030;-77
2022/05/10 11:44:06;;;;;;;3.72;2.75;;;20.00;43.50;;;;;;5034065;28;20036;-78
2022/05/10 11:46:53;;;;;;;2.53;2.35;;;20.20;44.10;;;;;;5016380;28;20036;-77
2022/05/10 11:49:35;;;;;;;4.45;2.22;;;20.00;43.50;;;;;;5016280;28;20025;-77
2022/05/10 11:52:22;;;;;;;2.80;2.25;;;19.90;43.10;;;;;;5031748;28;20029;-78
2022/05/10 11:55:30;;;;;;;3.20;2.30;;;20.00;43.30;;;;;;5029150;28;20040;-77
2022/05/10 11:58:00;;;;;;;4.07;2.30;;;20.30;42.60;;;;;;4926045;29;20039;-77
2022/05/10 12:00:31;;;;;;;4.35;2.45;;;20.60;42.70;;;;;;5036698;28;20151;-77
2022/05/10 12:03:03;;;;;;;12.15;3.90;;;20.70;41.70;;;;;;5009243;28;20859;-77
2022/05/10 12:05:34;;;;;;;3.85;2.72;;;20.70;42.50;;;;;;5051986;28;20018;-77
2022/05/10 12:08:04;;;;;;;4.70;2.47;;;20.70;42.10;;;;;;5043035;28;20022;-77
2022/05/10 12:10:42;;;;;;;6.50;2.60;;;20.80;40.40;;;;;;5030842;28;20013;-78
2022/05/10 12:21:19;;;;;;;3.90;2.65;;;20.80;40.00;;;;;;5026395;28;20021;-78
2022/05/10 12:22:11;;;;;;;4.10;2.80;;;20.70;41.50;;;;;;5032417;28;20502;-77
2022/05/10 12:24:44;;;;;;;4.85;2.55;;;20.80;42.40;;;;;;5030570;28;20025;-78
2022/05/10 12:27:12;;;;;;;4.53;3.22;;;20.80;41.90;;;;;;5024826;28;20029;-76
2022/05/10 12:29:38;;;;;;;4.95;2.80;;;20.80;41.70;;;;;;5021663;28;20029;-78
2022/05/10 12:32:29;;;;;;;7.68;2.13;;;21.10;41.80;;;;;;5024712;28;21045;-77
2022/05/10 12:34:57;;;;;;;3.80;2.50;;;21.10;40.90;;;;;;5031803;28;20498;-77
2022/05/10 12:37:29;;;;;;;5.53;2.40;;;21.10;40.90;;;;;;5016237;28;20033;-77
2022/05/10 12:40:09;;;;;;;3.03;2.42;;;21.10;41.20;;;;;;5032023;28;20032;-77
2022/05/10 12:43:01;;;;;;;5.97;2.45;;;21.10;41.20;;;;;;5032827;28;20676;-77
2022/05/10 12:46:00;;;;;;;4.97;3.03;;;20.90;40.20;;;;;;5032060;28;20028;-78
2022/05/10 12:49:03;;;;;;;6.55;2.75;;;21.00;41.00;;;;;;5013719;28;20041;-78
2022/05/10 12:52:01;;;;;;;3.63;2.30;;;20.90;40.60;;;;;;5031463;28;20065;-78
2022/05/10 12:54:38;;;;;;;4.43;2.30;;;20.80;40.40;;;;;;5028466;28;20063;-78
2022/05/10 12:57:22;;;;;;;5.75;2.80;;;20.90;40.40;;;;;;5020140;28;20845;-77
2022/05/10 13:00:12;;;;;;;3.95;2.42;;;21.10;40.10;;;;;;5031963;28;20140;-77
2022/05/10 13:02:58;;;;;;;4.38;2.70;;;21.00;40.20;;;;;;5031578;28;20439;-76
2022/05/10 13:05:50;;;;;;;4.20;2.60;;;21.20;41.10;;;;;;5028250;28;20493;-81
2022/05/10 13:08:22;;;;;;;5.53;3.28;;;21.30;40.10;;;;;;4992748;28;20029;-77
2022/05/10 13:10:49;;;;;;;4.43;2.72;;;21.20;39.60;;;;;;5014968;28;20029;-77
2022/05/10 13:13:26;;;;;;;6.53;2.85;;;21.30;40.20;;;;;;5032966;28;20029;-83
2022/05/10 13:15:52;;;;;;;3.28;2.97;;;21.50;39.70;;;;;;5032484;28;20058;-80
2022/05/10 13:18:24;;;;;;;24.42;4.25;;;21.50;40.10;;;;;;5015074;28;20379;-78
2022/05/10 13:20:52;;;;;;;3.13;2.55;;;21.70;39.50;;;;;;5035344;28;20096;-82
2022/05/10 13:23:19;;;;;;;5.47;2.28;;;21.80;39.30;;;;;;5036545;28;20071;-83
2022/05/10 13:25:47;;;;;;;5.32;2.60;;;22.10;40.00;;;;;;5017300;28;20045;-78
2022/05/10 13:28:15;;;;;;;6.30;2.90;;;22.20;39.10;;;;;;5036191;28;20036;-77
2022/05/10 13:30:50;;;;;;;6.78;2.90;;;22.30;39.40;;;;;;5036347;28;20049;-79
2022/05/10 13:33:35;;;;;;;4.28;3.10;;;22.20;37.20;;;;;;5018407;28;20025;-77
2022/05/10 13:36:05;;;;;;;5.13;2.85;;;22.10;37.20;;;;;;5036343;28;20038;-79